Aérodrome :







RETROUVEZ-NOUS SUR...

 
LOGIN :

S'inscrire | Disclaimer

   EN    FR    IT 

 









Légende :    VFR   VFR Marginal   IFR   IFR Intensif   IFR Très Intensif
Visi : 
Plafond : 
>= 8 km
>= 3000ft
5 à 8 km
1000 à 3000 ft
1500m à 5 km
500 à 1000 ft
800 à 1500m
200 à 500 ft
< 800m
< 200 ft
Symboles :   Orages  Brouillard  Fortes neiges  Fortes précipitations  Vent > 20 kt






- Altitude de l'aérodrome : 199 ft
- Code IATA : YRQ


CYRQ - Trois-Rivières

DERNIER METAR :
  • 051709Z AUTO 02010G16KT 9SM BKN011 BKN210 02/01 A2990 RMK SLP129

METARs EXPIRÉS :
  • 051600Z AUTO 01009KT 9SM BKN230 BKN250 02/01 A2992 RMK SLP134
  • 051500Z AUTO 36004KT 8SM BKN230 01/00 A2995 RMK SLP150

TAF TAF CYRQ
Valide du 05 à 14h jusqu'au 06 à 02h UTC


051338Z 0514/0602 35005KT P6SM SCT008 BKN040
TEMPO 0514/0517 5SM BR BKN008 OVC040
FM051700 36010KT P6SM SCT020 BKN240
TEMPO 0517/0520 BKN020
BECMG 0520/0522 35015G25KT RMK FCST BASED ON AUTO OBS. NXT FCST BY 052000Z
FIR CZUL / Amérique du Nord



MET'MAP, la Météo Aéronautique d'un coup d'oeil ! - Copyright ORBIFLY Décembre 2007 - Disclaimer

ORBIFLY MET'MAP TEAM :

Programmation & Développement : Alexandra Zaïnal
Sur une idée originale de : Baudouin d'Aumeries
Assistance à la programmation : Marc-Olivier Méhu
Soutien technique & logistique : Manuel Goepfert

Contact : metmap@orbifly.com




SOURCES & CREDITS :

   NOAA